Time;durP1;ratioP1;P1;durP2;ratioP2;P2;SDS_P1;SDS_P2;PMS_P1;PMS_P2;Temp;Humidity;BMP_temperature;BMP_pressure;BME280_temperature;BME280_humidity;BME280_pressure;Samples;Min_cycle;Max_cycle;Signal;HPM_P1;HPM_P2
2022/04/16 00:00:15;;;;;;;17.73;14.68;;;;;;;;;;5069528;28;24510;-47
2022/04/16 00:02:40;;;;;;;18.93;16.30;;;;;;;;;;5066736;28;24973;-47
2022/04/16 00:05:06;;;;;;;19.47;16.30;;;;;;;;;;5071387;28;24980;-48
2022/04/16 00:07:31;;;;;;;18.05;15.45;;;;;;;;;;5080930;28;24418;-47
2022/04/16 00:09:56;;;;;;;17.30;15.50;;;;;;;;;;5077133;28;24427;-47
2022/04/16 00:12:21;;;;;;;19.67;15.47;;;;;;;;;;5081817;28;24564;-47
2022/04/16 00:14:47;;;;;;;16.52;14.80;;;;;;;;;;5065528;28;24935;-47
2022/04/16 00:17:13;;;;;;;16.90;14.30;;;;;;;;;;5081445;28;24572;-47
2022/04/16 00:19:38;;;;;;;18.25;15.63;;;;;;;;;;5065100;28;24423;-47
2022/04/16 00:22:07;;;;;;;17.00;15.20;;;;;;;;;;5074954;28;24429;-47
2022/04/16 00:24:33;;;;;;;18.00;14.93;;;;;;;;;;5069542;28;24425;-47
2022/04/16 00:26:58;;;;;;;16.08;13.40;;;;;;;;;;5065477;28;24402;-46
2022/04/16 00:29:23;;;;;;;16.00;14.10;;;;;;;;;;5080903;28;24491;-47
2022/04/16 00:31:49;;;;;;;15.80;14.10;;;;;;;;;;5080396;28;24431;-46
2022/04/16 00:34:14;;;;;;;14.30;12.90;;;;;;;;;;5077494;28;24407;-46
2022/04/16 00:36:40;;;;;;;14.40;12.90;;;;;;;;;;5084254;28;24513;-47
2022/04/16 00:39:06;;;;;;;15.20;13.10;;;;;;;;;;5069857;28;24518;-46
2022/04/16 00:41:31;;;;;;;14.40;12.90;;;;;;;;;;5076701;28;24487;-51
2022/04/16 00:43:56;;;;;;;13.20;11.80;;;;;;;;;;5081389;28;24786;-47
2022/04/16 00:46:21;;;;;;;14.80;11.55;;;;;;;;;;5067221;28;24812;-46
2022/04/16 00:48:46;;;;;;;13.13;11.00;;;;;;;;;;5076377;28;24476;-47
2022/04/16 00:51:13;;;;;;;12.73;11.38;;;;;;;;;;5076382;28;24433;-46
2022/04/16 00:53:38;;;;;;;12.77;11.48;;;;;;;;;;5081894;28;24441;-47
2022/04/16 00:56:06;;;;;;;12.10;10.88;;;;;;;;;;5077731;28;24415;-47
2022/04/16 00:58:31;;;;;;;11.85;10.65;;;;;;;;;;5072747;28;24509;-46
2022/04/16 01:00:56;;;;;;;11.50;10.30;;;;;;;;;;5070616;28;25043;-47
2022/04/16 01:03:21;;;;;;;10.80;9.13;;;;;;;;;;5083232;28;24406;-47
2022/04/16 01:05:47;;;;;;;9.83;8.93;;;;;;;;;;5072676;28;24422;-47
2022/04/16 01:08:12;;;;;;;8.63;7.83;;;;;;;;;;5075332;28;24827;-47
2022/04/16 01:10:37;;;;;;;9.20;8.30;;;;;;;;;;5076476;28;24484;-47
2022/04/16 01:13:03;;;;;;;8.77;7.97;;;;;;;;;;5069262;28;24978;-47
2022/04/16 01:15:29;;;;;;;9.35;8.27;;;;;;;;;;5072493;28;24808;-46
2022/04/16 01:17:54;;;;;;;10.00;8.27;;;;;;;;;;5070599;28;25000;-46
2022/04/16 01:20:20;;;;;;;8.77;7.97;;;;;;;;;;5068707;28;24525;-46
2022/04/16 01:22:50;;;;;;;8.20;7.47;;;;;;;;;;5072095;28;24796;-46
2022/04/16 01:25:15;;;;;;;7.60;6.90;;;;;;;;;;5079386;28;24418;-47
2022/04/16 01:27:43;;;;;;;8.85;7.90;;;;;;;;;;5076175;28;24483;-47
2022/04/16 01:30:12;;;;;;;8.88;7.97;;;;;;;;;;5068389;28;24538;-47
2022/04/16 01:32:38;;;;;;;8.45;7.55;;;;;;;;;;5078144;28;24429;-46
2022/04/16 01:35:05;;;;;;;9.33;7.67;;;;;;;;;;5070683;28;24476;-46
2022/04/16 01:37:33;;;;;;;9.10;8.30;;;;;;;;;;5086206;28;24418;-46
2022/04/16 01:39:59;;;;;;;7.90;7.20;;;;;;;;;;5087874;28;24496;-46
2022/04/16 01:42:24;;;;;;;8.53;7.73;;;;;;;;;;5072774;28;24832;-46
2022/04/16 01:44:51;;;;;;;8.35;7.65;;;;;;;;;;5071745;28;24426;-46
2022/04/16 01:47:16;;;;;;;8.10;7.40;;;;;;;;;;5073889;28;24964;-46
2022/04/16 01:49:42;;;;;;;7.93;7.22;;;;;;;;;;5069051;28;24988;-46
2022/04/16 01:52:07;;;;;;;7.90;7.20;;;;;;;;;;5071588;28;24423;-46
2022/04/16 01:54:33;;;;;;;8.35;7.55;;;;;;;;;;5068284;28;24421;-46
2022/04/16 01:56:59;;;;;;;8.38;7.57;;;;;;;;;;5077708;28;24422;-46
2022/04/16 01:59:25;;;;;;;8.30;7.50;;;;;;;;;;5068121;28;24397;-46
2022/04/16 02:01:50;;;;;;;9.23;7.65;;;;;;;;;;5076968;28;24422;-46
2022/04/16 02:04:15;;;;;;;8.30;7.40;;;;;;;;;;5088539;28;24452;-47
2022/04/16 02:06:40;;;;;;;7.55;6.85;;;;;;;;;;5075657;28;24967;-46
2022/04/16 02:09:05;;;;;;;7.00;6.30;;;;;;;;;;5088088;28;24393;-46
2022/04/16 02:11:30;;;;;;;6.65;6.05;;;;;;;;;;5068011;28;24449;-46
2022/04/16 02:13:56;;;;;;;6.95;6.30;;;;;;;;;;5084252;28;24407;-46
2022/04/16 02:16:21;;;;;;;6.53;5.83;;;;;;;;;;5072436;28;24546;-46
2022/04/16 02:18:46;;;;;;;6.85;6.15;;;;;;;;;;5085679;28;25039;-47
2022/04/16 02:21:11;;;;;;;6.30;5.70;;;;;;;;;;5068480;28;24446;-47
2022/04/16 02:23:36;;;;;;;6.47;5.20;;;;;;;;;;5074907;28;24418;-47
2022/04/16 02:26:02;;;;;;;5.10;4.70;;;;;;;;;;5073874;28;24513;-46
2022/04/16 02:28:27;;;;;;;4.80;4.40;;;;;;;;;;5073120;28;25162;-46
2022/04/16 02:30:52;;;;;;;4.37;4.00;;;;;;;;;;5075466;28;24450;-46
2022/04/16 02:33:17;;;;;;;5.30;4.47;;;;;;;;;;5078883;28;24440;-46
2022/04/16 02:35:42;;;;;;;4.30;4.00;;;;;;;;;;5071911;28;24453;-47
2022/04/16 02:38:08;;;;;;;4.75;4.07;;;;;;;;;;5072681;28;24468;-46
2022/04/16 02:40:33;;;;;;;4.40;4.00;;;;;;;;;;5069255;28;24528;-47
2022/04/16 02:42:58;;;;;;;4.37;4.07;;;;;;;;;;5067963;28;24399;-46
2022/04/16 02:48:07;;;;;;;4.63;4.07;;;;;;;;;;5080426;28;24437;-47
2022/04/16 02:50:32;;;;;;;4.23;3.83;;;;;;;;;;5071401;28;24422;-47
2022/04/16 02:52:58;;;;;;;5.03;4.00;;;;;;;;;;5083401;28;24550;-46
2022/04/16 02:55:23;;;;;;;5.25;4.15;;;;;;;;;;5083513;28;24521;-46
2022/04/16 02:57:52;;;;;;;4.03;3.70;;;;;;;;;;5079090;28;24414;-47
2022/04/16 03:00:19;;;;;;;4.00;3.60;;;;;;;;;;5072987;28;24443;-46
2022/04/16 03:02:45;;;;;;;5.00;3.40;;;;;;;;;;5068470;28;24415;-46
2022/04/16 03:05:11;;;;;;;4.20;3.70;;;;;;;;;;5075051;28;24432;-47
2022/04/16 03:07:36;;;;;;;3.55;3.25;;;;;;;;;;5080126;28;24426;-47
2022/04/16 03:10:02;;;;;;;4.57;3.20;;;;;;;;;;5067181;28;24797;-46
2022/04/16 03:12:28;;;;;;;4.22;3.45;;;;;;;;;;5066844;28;24514;-46
2022/04/16 03:17:37;;;;;;;3.30;3.00;;;;;;;;;;5084639;28;24461;-47
2022/04/16 03:20:07;;;;;;;3.05;2.80;;;;;;;;;;5066379;28;24860;-46
2022/04/16 03:22:33;;;;;;;3.40;3.10;;;;;;;;;;5075006;28;24418;-47
2022/04/16 03:24:59;;;;;;;3.50;3.20;;;;;;;;;;5069441;28;24480;-47
2022/04/16 03:27:24;;;;;;;3.85;3.20;;;;;;;;;;5064598;28;24425;-46
2022/04/16 03:29:49;;;;;;;3.47;3.17;;;;;;;;;;5066144;28;24431;-46
2022/04/16 03:32:14;;;;;;;4.00;2.90;;;;;;;;;;5080711;28;24963;-47
2022/04/16 03:34:40;;;;;;;3.22;3.00;;;;;;;;;;5074433;28;24525;-47
2022/04/16 03:37:06;;;;;;;3.50;3.00;;;;;;;;;;5066709;28;24426;-47
2022/04/16 03:39:31;;;;;;;3.80;3.50;;;;;;;;;;5065934;28;24411;-47
2022/04/16 03:41:56;;;;;;;3.78;3.20;;;;;;;;;;5078348;28;24516;-47
2022/04/16 03:44:21;;;;;;;4.30;3.03;;;;;;;;;;5070890;28;24491;-48
2022/04/16 03:46:46;;;;;;;4.10;3.50;;;;;;;;;;5075030;28;24774;-47
2022/04/16 03:49:11;;;;;;;4.07;3.30;;;;;;;;;;5071486;28;24533;-46
2022/04/16 03:51:36;;;;;;;3.25;2.95;;;;;;;;;;5074421;28;24415;-46
2022/04/16 04:02:13;;;;;;;3.92;3.63;;;;;;;;;;5069231;28;24491;-46
2022/04/16 04:04:38;;;;;;;4.10;3.67;;;;;;;;;;5067247;28;24426;-47
2022/04/16 04:07:04;;;;;;;4.33;3.50;;;;;;;;;;5081079;28;24449;-47
2022/04/16 04:09:29;;;;;;;4.03;3.70;;;;;;;;;;5064498;28;24427;-46
2022/04/16 04:11:54;;;;;;;4.90;3.88;;;;;;;;;;5067853;28;24502;-47
2022/04/16 04:14:19;;;;;;;3.90;3.60;;;;;;;;;;5069461;28;24450;-47
2022/04/16 04:16:44;;;;;;;3.70;3.40;;;;;;;;;;5074549;28;25045;-46
2022/04/16 04:19:10;;;;;;;4.55;4.00;;;;;;;;;;5068329;28;24439;-47
2022/04/16 04:21:35;;;;;;;5.32;4.40;;;;;;;;;;5067197;28;24438;-47
2022/04/16 04:24:00;;;;;;;4.78;4.15;;;;;;;;;;5079622;28;25253;-46
2022/04/16 04:26:25;;;;;;;4.50;4.00;;;;;;;;;;5073341;28;24490;-47
2022/04/16 04:28:50;;;;;;;4.30;3.90;;;;;;;;;;5072591;28;24495;-51
2022/04/16 04:31:16;;;;;;;4.23;3.80;;;;;;;;;;5077856;28;24461;-47
2022/04/16 04:33:41;;;;;;;4.80;4.22;;;;;;;;;;5079620;28;24457;-46
2022/04/16 04:36:06;;;;;;;4.60;4.20;;;;;;;;;;5077575;28;25508;-46
2022/04/16 04:38:31;;;;;;;5.10;4.15;;;;;;;;;;5084507;28;24475;-46
2022/04/16 04:40:56;;;;;;;6.50;5.00;;;;;;;;;;5071664;28;24831;-47
2022/04/16 04:43:21;;;;;;;6.30;5.00;;;;;;;;;;5071164;28;24454;-46
2022/04/16 04:45:48;;;;;;;5.90;5.30;;;;;;;;;;5066184;28;24422;-46
2022/04/16 04:48:13;;;;;;;5.70;5.20;;;;;;;;;;5075284;28;24525;-47
2022/04/16 04:50:38;;;;;;;6.75;6.15;;;;;;;;;;5065762;28;24526;-47
2022/04/16 04:53:03;;;;;;;7.27;5.93;;;;;;;;;;5067489;28;24965;-47
2022/04/16 04:55:29;;;;;;;7.82;7.05;;;;;;;;;;5075492;28;24824;-47
2022/04/16 04:57:55;;;;;;;7.10;6.50;;;;;;;;;;5072366;28;24462;-46
2022/04/16 05:00:20;;;;;;;7.50;6.90;;;;;;;;;;5073500;28;24413;-47
2022/04/16 05:02:47;;;;;;;7.43;6.73;;;;;;;;;;5069853;28;24502;-46
2022/04/16 05:05:12;;;;;;;7.60;6.90;;;;;;;;;;5074586;28;24793;-47
2022/04/16 05:07:37;;;;;;;8.20;7.40;;;;;;;;;;5081587;28;25036;-47
2022/04/16 05:10:03;;;;;;;7.10;6.50;;;;;;;;;;5076162;28;24560;-47
2022/04/16 05:12:29;;;;;;;7.38;6.75;;;;;;;;;;5083279;28;24465;-45
2022/04/16 05:14:54;;;;;;;7.30;6.60;;;;;;;;;;5077024;28;24446;-46
2022/04/16 05:17:19;;;;;;;7.50;6.60;;;;;;;;;;5072866;28;24438;-46
2022/04/16 05:19:44;;;;;;;6.93;6.20;;;;;;;;;;5075158;28;24944;-46
2022/04/16 05:22:09;;;;;;;7.50;6.90;;;;;;;;;;5071001;28;24541;-46
2022/04/16 05:24:34;;;;;;;7.57;6.88;;;;;;;;;;5074866;28;24460;-46
2022/04/16 05:26:59;;;;;;;7.78;7.18;;;;;;;;;;5076123;28;24429;-47
2022/04/16 05:29:25;;;;;;;7.70;7.00;;;;;;;;;;5083880;28;24881;-46
2022/04/16 05:31:50;;;;;;;7.60;6.80;;;;;;;;;;5073845;28;24449;-45
2022/04/16 05:34:18;;;;;;;7.53;6.93;;;;;;;;;;5073076;28;24817;-46
2022/04/16 05:36:44;;;;;;;8.25;7.47;;;;;;;;;;5087315;28;24486;-47
2022/04/16 05:39:09;;;;;;;7.07;6.57;;;;;;;;;;5074132;28;25061;-46
2022/04/16 05:41:34;;;;;;;7.55;6.95;;;;;;;;;;5081063;28;24447;-46
2022/04/16 05:44:00;;;;;;;6.80;6.30;;;;;;;;;;5075943;28;24418;-46
2022/04/16 05:46:25;;;;;;;6.60;6.10;;;;;;;;;;5067929;28;24430;-46
2022/04/16 05:48:50;;;;;;;6.00;5.60;;;;;;;;;;5077890;28;24430;-46
2022/04/16 05:51:15;;;;;;;6.50;6.10;;;;;;;;;;5080820;28;24520;-46
2022/04/16 05:53:41;;;;;;;6.70;6.20;;;;;;;;;;5070876;28;24973;-46
2022/04/16 05:56:06;;;;;;;6.63;6.13;;;;;;;;;;5082569;28;24427;-46
2022/04/16 05:58:31;;;;;;;6.53;6.03;;;;;;;;;;5071408;28;24585;-46
2022/04/16 06:00:56;;;;;;;6.40;5.97;;;;;;;;;;5077266;28;24514;-46
2022/04/16 06:03:22;;;;;;;6.33;5.83;;;;;;;;;;5068836;28;24826;-46
2022/04/16 06:05:47;;;;;;;6.40;5.80;;;;;;;;;;5078785;28;24425;-46
2022/04/16 06:08:12;;;;;;;5.93;5.53;;;;;;;;;;5079157;28;25054;-46
2022/04/16 06:10:37;;;;;;;5.95;5.45;;;;;;;;;;5069897;28;24986;-46
2022/04/16 06:13:03;;;;;;;6.60;6.10;;;;;;;;;;5077117;28;25050;-46
2022/04/16 06:15:28;;;;;;;6.30;5.80;;;;;;;;;;5071516;28;24411;-46
2022/04/16 06:17:53;;;;;;;6.13;5.53;;;;;;;;;;5078612;28;24414;-46
2022/04/16 06:20:18;;;;;;;6.40;5.80;;;;;;;;;;5073850;28;24419;-46
2022/04/16 06:22:44;;;;;;;6.00;5.50;;;;;;;;;;5077004;28;24457;-46
2022/04/16 06:25:09;;;;;;;6.10;5.60;;;;;;;;;;5088745;28;24426;-46
2022/04/16 06:27:38;;;;;;;5.53;5.13;;;;;;;;;;5075189;28;24418;-46
2022/04/16 06:30:03;;;;;;;4.90;4.50;;;;;;;;;;5076261;28;24609;-46
2022/04/16 06:32:28;;;;;;;4.80;4.40;;;;;;;;;;5073731;28;26069;-46
2022/04/16 06:34:53;;;;;;;4.40;3.58;;;;;;;;;;5075329;28;24402;-46
2022/04/16 06:37:18;;;;;;;4.40;4.00;;;;;;;;;;5082898;28;24433;-46
2022/04/16 06:39:43;;;;;;;3.70;3.40;;;;;;;;;;5082665;28;24402;-45
2022/04/16 06:42:09;;;;;;;4.07;3.78;;;;;;;;;;5079396;28;24531;-46
2022/04/16 06:44:34;;;;;;;4.00;3.70;;;;;;;;;;5073481;28;24453;-47
2022/04/16 06:46:59;;;;;;;3.90;3.60;;;;;;;;;;5073583;28;24547;-46
2022/04/16 06:49:27;;;;;;;4.00;3.70;;;;;;;;;;5069539;28;24429;-46
2022/04/16 06:51:52;;;;;;;3.33;3.03;;;;;;;;;;5076738;28;24433;-46
2022/04/16 06:54:18;;;;;;;4.30;3.90;;;;;;;;;;5073006;28;24489;-46
2022/04/16 06:56:43;;;;;;;3.70;3.30;;;;;;;;;;5072252;28;24425;-47
2022/04/16 06:59:08;;;;;;;4.20;3.60;;;;;;;;;;5076043;28;25034;-47
2022/04/16 07:01:33;;;;;;;3.30;3.10;;;;;;;;;;5076587;28;24411;-47
2022/04/16 07:03:58;;;;;;;3.38;3.00;;;;;;;;;;5082259;28;24430;-47
2022/04/16 07:06:23;;;;;;;3.25;3.05;;;;;;;;;;5072794;28;24442;-47
2022/04/16 07:08:49;;;;;;;3.66;3.36;;;;;;;;;;5065955;28;24768;-47
2022/04/16 07:11:14;;;;;;;3.60;3.30;;;;;;;;;;5083340;28;24465;-47
2022/04/16 07:13:39;;;;;;;3.80;3.20;;;;;;;;;;5072936;28;24542;-47
2022/04/16 07:16:04;;;;;;;3.50;3.20;;;;;;;;;;5075676;28;24975;-47
2022/04/16 07:18:29;;;;;;;3.40;3.10;;;;;;;;;;5068825;28;24560;-47
2022/04/16 07:20:55;;;;;;;3.50;3.20;;;;;;;;;;5072730;28;24963;-46
2022/04/16 07:23:20;;;;;;;3.97;3.67;;;;;;;;;;5079134;28;24962;-47
2022/04/16 07:25:45;;;;;;;3.27;2.97;;;;;;;;;;5076542;28;24456;-46
2022/04/16 07:28:11;;;;;;;3.20;3.00;;;;;;;;;;5073696;28;24963;-46
2022/04/16 07:30:36;;;;;;;4.10;3.30;;;;;;;;;;5070581;28;24442;-46
2022/04/16 07:33:01;;;;;;;3.70;3.00;;;;;;;;;;5082481;28;24463;-46
2022/04/16 07:35:27;;;;;;;2.57;2.37;;;;;;;;;;5078296;28;25063;-46
2022/04/16 07:37:56;;;;;;;3.55;3.00;;;;;;;;;;5066540;28;24390;-46
2022/04/16 07:40:22;;;;;;;3.33;3.03;;;;;;;;;;5066013;28;24418;-46
2022/04/16 07:42:47;;;;;;;3.50;3.20;;;;;;;;;;5064671;28;24389;-47
2022/04/16 07:45:12;;;;;;;2.97;2.75;;;;;;;;;;5067517;28;24908;-47
2022/04/16 07:47:37;;;;;;;3.43;3.00;;;;;;;;;;5066023;28;24817;-47
2022/04/16 07:50:02;;;;;;;3.25;3.00;;;;;;;;;;5066174;28;24457;-47
2022/04/16 07:52:28;;;;;;;2.90;2.70;;;;;;;;;;5066422;28;24454;-52
2022/04/16 07:54:53;;;;;;;5.00;4.40;;;;;;;;;;5066361;28;24501;-51
2022/04/16 07:57:18;;;;;;;4.13;3.47;;;;;;;;;;5078517;28;24491;-52
2022/04/16 07:59:43;;;;;;;3.50;3.10;;;;;;;;;;5074755;28;24765;-52
2022/04/16 08:02:09;;;;;;;2.60;2.40;;;;;;;;;;5065810;28;24472;-51
2022/04/16 08:04:34;;;;;;;2.50;2.30;;;;;;;;;;5066437;28;24456;-51
2022/04/16 08:06:59;;;;;;;2.80;2.60;;;;;;;;;;5068490;28;24556;-51
2022/04/16 08:09:24;;;;;;;4.20;2.90;;;;;;;;;;5065982;28;24510;-52
2022/04/16 08:11:49;;;;;;;2.90;2.70;;;;;;;;;;5065783;28;24476;-51
2022/04/16 08:14:14;;;;;;;2.70;2.50;;;;;;;;;;5065859;28;24434;-51
2022/04/16 08:16:40;;;;;;;3.30;2.47;;;;;;;;;;5076645;28;24458;-52
2022/04/16 08:19:05;;;;;;;2.35;2.10;;;;;;;;;;5080494;28;25157;-51
2022/04/16 08:21:32;;;;;;;2.50;2.30;;;;;;;;;;5075978;28;26471;-51
2022/04/16 08:26:48;;;;;;;2.60;2.40;;;;;;;;;;5056801;28;24444;-51
2022/04/16 08:29:13;;;;;;;2.60;2.40;;;;;;;;;;5074728;28;25103;-50
2022/04/16 08:31:38;;;;;;;2.60;2.40;;;;;;;;;;5065231;28;24617;-51
2022/04/16 08:34:04;;;;;;;2.70;2.50;;;;;;;;;;5062491;28;24422;-50
2022/04/16 08:36:29;;;;;;;2.73;2.53;;;;;;;;;;5065973;28;24394;-53
2022/04/16 08:38:54;;;;;;;2.78;2.35;;;;;;;;;;5079203;28;25197;-54
2022/04/16 08:41:20;;;;;;;2.50;2.30;;;;;;;;;;5064576;28;24419;-53
2022/04/16 08:43:45;;;;;;;2.72;2.50;;;;;;;;;;5076690;28;24448;-53
2022/04/16 08:46:10;;;;;;;2.80;2.60;;;;;;;;;;5075984;28;25002;-54
2022/04/16 08:48:36;;;;;;;3.37;3.17;;;;;;;;;;5064641;28;24428;-54
2022/04/16 08:51:02;;;;;;;3.72;3.45;;;;;;;;;;5068947;28;24487;-52
2022/04/16 08:53:27;;;;;;;3.40;3.20;;;;;;;;;;5083831;28;24782;-51
2022/04/16 08:55:52;;;;;;;4.10;3.40;;;;;;;;;;5082030;28;24795;-51
2022/04/16 08:58:17;;;;;;;3.90;3.60;;;;;;;;;;5096052;28;24420;-51
2022/04/16 09:00:42;;;;;;;3.83;3.53;;;;;;;;;;5081091;28;24908;-52
2022/04/16 09:03:09;;;;;;;3.37;3.17;;;;;;;;;;5088575;28;24983;-51
2022/04/16 09:05:34;;;;;;;3.97;3.58;;;;;;;;;;5068135;28;24991;-52
2022/04/16 09:08:00;;;;;;;3.80;3.60;;;;;;;;;;5087277;28;24433;-52
2022/04/16 09:10:26;;;;;;;3.50;3.27;;;;;;;;;;5082890;28;24812;-52
2022/04/16 09:12:52;;;;;;;2.90;2.70;;;;;;;;;;5084101;28;24498;-52
2022/04/16 09:15:18;;;;;;;4.20;2.70;;;;;;;;;;5079747;28;24414;-52
2022/04/16 09:17:43;;;;;;;2.60;2.40;;;;;;;;;;5080514;28;24748;-52
2022/04/16 09:20:09;;;;;;;2.60;2.40;;;;;;;;;;5081172;28;24610;-52
2022/04/16 09:22:35;;;;;;;3.30;2.20;;;;;;;;;;5098264;28;24422;-52
2022/04/16 09:25:01;;;;;;;2.28;2.08;;;;;;;;;;5078005;28;24449;-52
2022/04/16 09:27:26;;;;;;;2.50;2.30;;;;;;;;;;5096012;28;24420;-51
2022/04/16 09:29:54;;;;;;;2.90;1.90;;;;;;;;;;5081015;28;24445;-51
2022/04/16 09:32:23;;;;;;;1.92;1.70;;;;;;;;;;5067415;28;24536;-50
2022/04/16 09:34:49;;;;;;;2.13;2.03;;;;;;;;;;5080656;28;24486;-50
2022/04/16 09:37:14;;;;;;;2.70;2.50;;;;;;;;;;5080619;28;24517;-49
2022/04/16 09:39:40;;;;;;;2.80;2.60;;;;;;;;;;5071280;28;24430;-50
2022/04/16 09:42:05;;;;;;;2.60;2.40;;;;;;;;;;5075349;28;25038;-50
2022/04/16 09:44:30;;;;;;;2.50;2.30;;;;;;;;;;5078778;28;24486;-50
2022/04/16 09:46:55;;;;;;;2.80;2.30;;;;;;;;;;5066097;28;24494;-50
2022/04/16 09:49:21;;;;;;;2.75;2.38;;;;;;;;;;5068399;28;24415;-50
2022/04/16 09:51:47;;;;;;;2.50;2.30;;;;;;;;;;5068096;28;24440;-50
2022/04/16 09:54:13;;;;;;;2.40;2.20;;;;;;;;;;5068290;28;24959;-49
2022/04/16 09:56:39;;;;;;;2.40;1.92;;;;;;;;;;5067834;28;24474;-50
2022/04/16 09:59:05;;;;;;;2.30;2.20;;;;;;;;;;5068160;28;24493;-50
2022/04/16 10:01:30;;;;;;;2.70;2.30;;;;;;;;;;5068040;28;24386;-50
2022/04/16 10:03:56;;;;;;;2.35;2.15;;;;;;;;;;5067768;28;24810;-50
2022/04/16 10:06:21;;;;;;;3.28;2.13;;;;;;;;;;5067714;28;24441;-50
2022/04/16 10:08:49;;;;;;;2.05;1.85;;;;;;;;;;5067509;28;24459;-50
2022/04/16 10:11:20;;;;;;;2.20;2.00;;;;;;;;;;5068172;28;24386;-50
2022/04/16 10:13:51;;;;;;;3.65;2.20;;;;;;;;;;5067751;28;24395;-50
2022/04/16 10:16:20;;;;;;;3.72;2.85;;;;;;;;;;5068307;28;24433;-50
2022/04/16 10:18:45;;;;;;;2.53;2.33;;;;;;;;;;5067157;28;24419;-49
2022/04/16 10:21:15;;;;;;;2.00;1.90;;;;;;;;;;5066186;28;24433;-50
2022/04/16 10:23:40;;;;;;;2.30;2.10;;;;;;;;;;5067540;28;24527;-50
2022/04/16 10:26:08;;;;;;;2.30;2.10;;;;;;;;;;5067656;28;24490;-50
2022/04/16 10:28:37;;;;;;;3.28;2.50;;;;;;;;;;5067359;28;24948;-50
2022/04/16 10:31:03;;;;;;;2.63;2.42;;;;;;;;;;5067134;28;24422;-50
2022/04/16 10:33:28;;;;;;;2.50;2.30;;;;;;;;;;5067785;28;24999;-50
2022/04/16 10:35:56;;;;;;;2.50;2.30;;;;;;;;;;5067237;28;24980;-51
2022/04/16 10:38:43;;;;;;;2.60;2.40;;;;;;;;;;5065674;28;24399;-50
2022/04/16 10:41:17;;;;;;;2.40;2.20;;;;;;;;;;5074706;28;25007;-50
2022/04/16 10:43:51;;;;;;;2.55;2.30;;;;;;;;;;5087284;28;24639;-51
2022/04/16 10:46:16;;;;;;;2.33;2.13;;;;;;;;;;5087601;28;24466;-51
2022/04/16 10:48:42;;;;;;;2.60;2.00;;;;;;;;;;5087184;28;24399;-51
2022/04/16 10:51:09;;;;;;;2.40;2.10;;;;;;;;;;5087449;28;24406;-50
2022/04/16 10:53:35;;;;;;;2.30;2.10;;;;;;;;;;5087041;28;24935;-49
2022/04/16 10:56:14;;;;;;;1.95;1.63;;;;;;;;;;5087166;28;24394;-49
2022/04/16 10:58:43;;;;;;;2.00;1.90;;;;;;;;;;5086642;28;24505;-50
2022/04/16 11:01:12;;;;;;;1.90;1.50;;;;;;;;;;5087021;28;24405;-51
2022/04/16 11:03:47;;;;;;;2.08;1.88;;;;;;;;;;5086943;28;24486;-51
2022/04/16 11:06:13;;;;;;;2.50;1.80;;;;;;;;;;5087208;28;24485;-50
2022/04/16 11:08:39;;;;;;;1.80;1.70;;;;;;;;;;5087125;28;24406;-51
2022/04/16 11:11:04;;;;;;;2.28;2.08;;;;;;;;;;5086595;28;24448;-51
2022/04/16 11:13:30;;;;;;;1.80;1.70;;;;;;;;;;5086839;28;24947;-50
2022/04/16 11:15:56;;;;;;;2.30;2.10;;;;;;;;;;5086156;28;25010;-51
2022/04/16 11:18:21;;;;;;;1.93;1.73;;;;;;;;;;5086984;28;24433;-50
2022/04/16 11:20:53;;;;;;;2.00;1.90;;;;;;;;;;5086505;28;25089;-50
2022/04/16 11:23:18;;;;;;;2.67;2.00;;;;;;;;;;5086637;28;24485;-50
2022/04/16 11:34:17;;;;;;;3.13;2.40;;;;;;;;;;5086480;28;24413;-50
2022/04/16 11:36:42;;;;;;;2.50;2.30;;;;;;;;;;5086643;28;24544;-50
2022/04/16 11:39:20;;;;;;;2.83;2.10;;;;;;;;;;5086335;28;24524;-50
2022/04/16 11:41:48;;;;;;;2.20;1.90;;;;;;;;;;5086506;28;24409;-50
2022/04/16 11:44:13;;;;;;;2.60;2.40;;;;;;;;;;5086191;28;24951;-50
2022/04/16 11:46:41;;;;;;;2.80;2.50;;;;;;;;;;5068840;28;24435;-50
2022/04/16 11:49:06;;;;;;;2.00;1.80;;;;;;;;;;5065970;28;24455;-50
2022/04/16 11:51:34;;;;;;;2.93;2.70;;;;;;;;;;5063347;28;24509;-50
2022/04/16 11:53:59;;;;;;;2.07;1.80;;;;;;;;;;5065836;28;24426;-50
2022/04/16 11:56:26;;;;;;;2.97;1.97;;;;;;;;;;5065106;28;24973;-51
2022/04/16 11:58:52;;;;;;;1.80;1.70;;;;;;;;;;5065806;28;24432;-50
2022/04/16 12:01:23;;;;;;;2.20;2.00;;;;;;;;;;5063078;28;24422;-51
2022/04/16 12:03:48;;;;;;;2.50;2.30;;;;;;;;;;5065932;28;24453;-50
2022/04/16 12:06:14;;;;;;;2.93;2.73;;;;;;;;;;5065296;28;24519;-50
2022/04/16 12:08:40;;;;;;;3.90;3.20;;;;;;;;;;5064384;28;24797;-50
2022/04/16 12:11:05;;;;;;;2.80;2.60;;;;;;;;;;5064669;28;24456;-51
2022/04/16 12:13:37;;;;;;;2.55;2.00;;;;;;;;;;5065690;28;24417;-50
2022/04/16 12:16:03;;;;;;;2.00;1.90;;;;;;;;;;5065398;28;24515;-50
2022/04/16 12:18:33;;;;;;;3.90;3.58;;;;;;;;;;5065895;28;24468;-51
2022/04/16 12:21:05;;;;;;;2.30;2.10;;;;;;;;;;5084224;28;24420;-50
2022/04/16 12:23:30;;;;;;;2.20;1.70;;;;;;;;;;5084725;28;24408;-50
2022/04/16 12:26:03;;;;;;;1.70;1.60;;;;;;;;;;5064241;28;24445;-50
2022/04/16 12:28:31;;;;;;;3.65;2.10;;;;;;;;;;5066548;28;24394;-50
2022/04/16 12:30:56;;;;;;;2.00;1.90;;;;;;;;;;5068035;28;24429;-50
2022/04/16 12:33:25;;;;;;;2.20;2.00;;;;;;;;;;5069200;28;25005;-50
2022/04/16 12:35:55;;;;;;;2.70;2.30;;;;;;;;;;5068117;28;25378;-50
2022/04/16 12:38:20;;;;;;;2.28;2.10;;;;;;;;;;5068856;28;24517;-50
2022/04/16 12:40:45;;;;;;;1.90;1.80;;;;;;;;;;5084015;28;24477;-50
2022/04/16 12:43:11;;;;;;;1.88;1.70;;;;;;;;;;5086281;28;25474;-50
2022/04/16 12:45:36;;;;;;;1.80;1.70;;;;;;;;;;5068019;28;24481;-50
2022/04/16 12:48:02;;;;;;;1.70;1.50;;;;;;;;;;5068751;28;24398;-51
2022/04/16 12:50:28;;;;;;;1.60;1.50;;;;;;;;;;5068116;28;24405;-50
2022/04/16 12:52:53;;;;;;;1.90;1.80;;;;;;;;;;5068740;28;24960;-50
2022/04/16 12:55:19;;;;;;;2.00;1.73;;;;;;;;;;5069233;28;24575;-50
2022/04/16 12:57:44;;;;;;;2.70;2.10;;;;;;;;;;5068381;28;24390;-50
2022/04/16 13:00:10;;;;;;;1.60;1.50;;;;;;;;;;5067632;28;24526;-50
2022/04/16 13:02:38;;;;;;;2.00;1.60;;;;;;;;;;5068694;28;24395;-50
2022/04/16 13:05:04;;;;;;;2.00;1.50;;;;;;;;;;5067464;28;24411;-50
2022/04/16 13:07:29;;;;;;;1.63;1.52;;;;;;;;;;5068852;28;24434;-50
2022/04/16 13:09:54;;;;;;;2.50;1.60;;;;;;;;;;5067387;28;24693;-50
2022/04/16 13:12:19;;;;;;;1.67;1.38;;;;;;;;;;5068234;28;25289;-51
2022/04/16 13:14:46;;;;;;;1.90;1.60;;;;;;;;;;5068125;28;24379;-51
2022/04/16 13:17:11;;;;;;;1.50;1.40;;;;;;;;;;5068020;28;24936;-50
2022/04/16 13:19:36;;;;;;;2.40;1.50;;;;;;;;;;5068667;28;24402;-50
2022/04/16 13:22:02;;;;;;;2.40;1.40;;;;;;;;;;5068126;28;24736;-50
2022/04/16 13:24:28;;;;;;;1.80;1.50;;;;;;;;;;5067282;28;24417;-50
2022/04/16 13:26:53;;;;;;;1.58;1.40;;;;;;;;;;5069880;28;26231;-50
2022/04/16 13:29:18;;;;;;;1.67;1.57;;;;;;;;;;5086972;28;24390;-50
2022/04/16 13:31:44;;;;;;;1.70;1.60;;;;;;;;;;5085159;28;24414;-49
2022/04/16 13:34:09;;;;;;;2.00;1.50;;;;;;;;;;5066908;28;24772;-50
2022/04/16 13:36:34;;;;;;;1.70;1.60;;;;;;;;;;5067696;28;24723;-49
2022/04/16 13:38:59;;;;;;;1.50;1.30;;;;;;;;;;5078773;28;24426;-50
2022/04/16 13:41:40;;;;;;;1.90;1.70;;;;;;;;;;5085495;28;25035;-49
2022/04/16 13:44:07;;;;;;;2.00;1.80;;;;;;;;;;5066739;28;24387;-49
2022/04/16 13:46:32;;;;;;;2.17;1.80;;;;;;;;;;5067744;28;24491;-50
2022/04/16 13:48:58;;;;;;;2.00;1.80;;;;;;;;;;5067315;28;24928;-49
2022/04/16 13:51:23;;;;;;;1.60;1.50;;;;;;;;;;5067965;28;24406;-50
2022/04/16 13:53:48;;;;;;;1.77;1.67;;;;;;;;;;5068309;28;24414;-49
2022/04/16 13:56:13;;;;;;;2.90;1.50;;;;;;;;;;5068681;28;24940;-50
2022/04/16 13:58:38;;;;;;;1.70;1.60;;;;;;;;;;5068133;28;24449;-49
2022/04/16 14:01:03;;;;;;;1.60;1.50;;;;;;;;;;5068306;28;25032;-50
2022/04/16 14:03:29;;;;;;;1.70;1.60;;;;;;;;;;5068336;28;24457;-49
2022/04/16 14:05:54;;;;;;;1.67;1.50;;;;;;;;;;5068155;28;24531;-50
2022/04/16 14:08:19;;;;;;;1.40;1.30;;;;;;;;;;5068109;28;24402;-50
2022/04/16 14:10:44;;;;;;;1.60;1.30;;;;;;;;;;5067986;28;24487;-50
2022/04/16 14:13:10;;;;;;;1.60;1.50;;;;;;;;;;5067879;28;24534;-50
2022/04/16 14:15:35;;;;;;;2.70;1.63;;;;;;;;;;5068178;28;24502;-50
2022/04/16 14:18:00;;;;;;;1.70;1.60;;;;;;;;;;5067944;28;24434;-50
2022/04/16 14:20:26;;;;;;;1.70;1.60;;;;;;;;;;5067680;28;24441;-50
2022/04/16 14:22:51;;;;;;;1.70;1.60;;;;;;;;;;5068295;28;24391;-50
2022/04/16 14:25:16;;;;;;;1.70;1.60;;;;;;;;;;5067773;28;24470;-50
2022/04/16 14:27:41;;;;;;;1.90;1.70;;;;;;;;;;5067791;28;24403;-51
2022/04/16 14:30:07;;;;;;;1.70;1.60;;;;;;;;;;5067586;28;24426;-50
2022/04/16 14:32:32;;;;;;;1.50;1.40;;;;;;;;;;5067352;28;24407;-50
2022/04/16 14:34:57;;;;;;;2.13;1.70;;;;;;;;;;5067651;28;24413;-50
2022/04/16 14:37:22;;;;;;;1.50;1.40;;;;;;;;;;5070043;28;24386;-51
2022/04/16 14:39:47;;;;;;;3.20;1.90;;;;;;;;;;5085435;28;24728;-51
2022/04/16 14:42:13;;;;;;;1.60;1.50;;;;;;;;;;5086125;28;24435;-50
2022/04/16 14:44:43;;;;;;;1.50;1.40;;;;;;;;;;5088093;28;24733;-51
2022/04/16 14:47:09;;;;;;;2.13;1.40;;;;;;;;;;5087776;28;24950;-51
2022/04/16 14:49:34;;;;;;;1.60;1.50;;;;;;;;;;5087437;28;24390;-54
2022/04/16 14:51:59;;;;;;;2.15;1.40;;;;;;;;;;5086832;28;24445;-50
2022/04/16 14:54:25;;;;;;;1.80;1.70;;;;;;;;;;5087083;28;24445;-51
2022/04/16 14:56:50;;;;;;;2.60;1.80;;;;;;;;;;5087505;28;24378;-57